sensor_id;sensor_type;location;lat;lon;timestamp;P1;durP1;ratioP1;P2;durP2;ratioP2
8986;SDS011;4529;51.360;12.474;2024-01-27T00:04:22;3.47;;;1.60;;
8986;SDS011;4529;51.360;12.474;2024-01-27T00:09:25;3.00;;;1.40;;
8986;SDS011;4529;51.360;12.474;2024-01-27T00:14:29;2.77;;;1.20;;
8986;SDS011;4529;51.360;12.474;2024-01-27T00:19:33;5.93;;;1.60;;
8986;SDS011;4529;51.360;12.474;2024-01-27T00:24:37;2.90;;;1.10;;
8986;SDS011;4529;51.360;12.474;2024-01-27T00:29:41;2.13;;;1.33;;
8986;SDS011;4529;51.360;12.474;2024-01-27T00:34:46;5.37;;;1.60;;
8986;SDS011;4529;51.360;12.474;2024-01-27T00:39:50;3.67;;;1.37;;
8986;SDS011;4529;51.360;12.474;2024-01-27T00:44:53;3.37;;;1.40;;
8986;SDS011;4529;51.360;12.474;2024-01-27T00:49:57;6.03;;;1.27;;
8986;SDS011;4529;51.360;12.474;2024-01-27T00:55:00;5.73;;;1.23;;
8986;SDS011;4529;51.360;12.474;2024-01-27T01:00:04;5.33;;;1.60;;
8986;SDS011;4529;51.360;12.474;2024-01-27T01:05:07;4.03;;;1.37;;
8986;SDS011;4529;51.360;12.474;2024-01-27T01:10:11;5.03;;;1.60;;
8986;SDS011;4529;51.360;12.474;2024-01-27T01:15:15;1.97;;;1.30;;
8986;SDS011;4529;51.360;12.474;2024-01-27T01:20:19;5.87;;;1.60;;
8986;SDS011;4529;51.360;12.474;2024-01-27T01:25:23;4.20;;;1.37;;
8986;SDS011;4529;51.360;12.474;2024-01-27T01:30:27;3.37;;;1.40;;
8986;SDS011;4529;51.360;12.474;2024-01-27T01:35:31;5.03;;;1.13;;
8986;SDS011;4529;51.360;12.474;2024-01-27T01:40:34;2.77;;;1.10;;
8986;SDS011;4529;51.360;12.474;2024-01-27T01:45:38;3.57;;;1.50;;
8986;SDS011;4529;51.360;12.474;2024-01-27T01:50:42;5.00;;;1.60;;
8986;SDS011;4529;51.360;12.474;2024-01-27T01:55:46;5.50;;;1.60;;
8986;SDS011;4529;51.360;12.474;2024-01-27T02:00:50;5.40;;;1.50;;
8986;SDS011;4529;51.360;12.474;2024-01-27T02:05:54;7.90;;;1.63;;
8986;SDS011;4529;51.360;12.474;2024-01-27T02:10:57;3.30;;;1.30;;
8986;SDS011;4529;51.360;12.474;2024-01-27T02:16:01;6.37;;;1.50;;
8986;SDS011;4529;51.360;12.474;2024-01-27T02:21:05;9.87;;;1.50;;
8986;SDS011;4529;51.360;12.474;2024-01-27T02:26:09;4.17;;;1.40;;
8986;SDS011;4529;51.360;12.474;2024-01-27T02:31:13;5.43;;;1.50;;
8986;SDS011;4529;51.360;12.474;2024-01-27T02:36:17;3.93;;;1.30;;
8986;SDS011;4529;51.360;12.474;2024-01-27T02:41:21;6.63;;;1.43;;
8986;SDS011;4529;51.360;12.474;2024-01-27T02:46:24;4.97;;;1.53;;
8986;SDS011;4529;51.360;12.474;2024-01-27T02:51:28;2.73;;;1.67;;
8986;SDS011;4529;51.360;12.474;2024-01-27T02:56:32;8.53;;;1.77;;
8986;SDS011;4529;51.360;12.474;2024-01-27T03:01:36;1.70;;;1.33;;
8986;SDS011;4529;51.360;12.474;2024-01-27T03:06:40;6.83;;;1.53;;
8986;SDS011;4529;51.360;12.474;2024-01-27T03:11:43;4.83;;;1.23;;
8986;SDS011;4529;51.360;12.474;2024-01-27T03:16:47;8.37;;;1.57;;
8986;SDS011;4529;51.360;12.474;2024-01-27T03:21:50;6.47;;;1.63;;
8986;SDS011;4529;51.360;12.474;2024-01-27T03:26:54;6.17;;;1.77;;
8986;SDS011;4529;51.360;12.474;2024-01-27T03:31:59;6.37;;;1.70;;
8986;SDS011;4529;51.360;12.474;2024-01-27T03:37:04;7.63;;;2.00;;
8986;SDS011;4529;51.360;12.474;2024-01-27T03:42:07;7.33;;;1.60;;
8986;SDS011;4529;51.360;12.474;2024-01-27T03:47:11;4.10;;;1.27;;
8986;SDS011;4529;51.360;12.474;2024-01-27T03:52:14;4.47;;;1.40;;
8986;SDS011;4529;51.360;12.474;2024-01-27T03:57:18;6.00;;;1.57;;
8986;SDS011;4529;51.360;12.474;2024-01-27T04:02:23;3.23;;;1.83;;
8986;SDS011;4529;51.360;12.474;2024-01-27T04:07:27;6.03;;;1.33;;
8986;SDS011;4529;51.360;12.474;2024-01-27T04:12:31;6.57;;;1.60;;
8986;SDS011;4529;51.360;12.474;2024-01-27T04:17:34;6.07;;;1.67;;
8986;SDS011;4529;51.360;12.474;2024-01-27T04:22:38;4.00;;;1.40;;
8986;SDS011;4529;51.360;12.474;2024-01-27T04:27:41;6.20;;;1.60;;
8986;SDS011;4529;51.360;12.474;2024-01-27T04:32:45;3.73;;;1.43;;
8986;SDS011;4529;51.360;12.474;2024-01-27T04:37:49;2.83;;;1.23;;
8986;SDS011;4529;51.360;12.474;2024-01-27T04:42:54;3.27;;;1.40;;
8986;SDS011;4529;51.360;12.474;2024-01-27T04:47:57;6.10;;;1.50;;
8986;SDS011;4529;51.360;12.474;2024-01-27T04:53:00;7.47;;;1.63;;
8986;SDS011;4529;51.360;12.474;2024-01-27T04:58:04;3.40;;;1.40;;
8986;SDS011;4529;51.360;12.474;2024-01-27T05:03:07;6.10;;;1.40;;
8986;SDS011;4529;51.360;12.474;2024-01-27T05:08:11;4.27;;;1.50;;
8986;SDS011;4529;51.360;12.474;2024-01-27T05:13:14;4.77;;;1.50;;
8986;SDS011;4529;51.360;12.474;2024-01-27T05:18:18;4.33;;;1.60;;
8986;SDS011;4529;51.360;12.474;2024-01-27T05:23:21;5.67;;;1.73;;
8986;SDS011;4529;51.360;12.474;2024-01-27T05:28:25;6.07;;;1.70;;
8986;SDS011;4529;51.360;12.474;2024-01-27T05:33:28;5.83;;;1.70;;
8986;SDS011;4529;51.360;12.474;2024-01-27T05:38:32;5.53;;;1.93;;
8986;SDS011;4529;51.360;12.474;2024-01-27T05:43:36;7.10;;;1.67;;
8986;SDS011;4529;51.360;12.474;2024-01-27T05:48:39;6.20;;;1.50;;
8986;SDS011;4529;51.360;12.474;2024-01-27T05:53:43;8.23;;;1.53;;
8986;SDS011;4529;51.360;12.474;2024-01-27T05:58:46;6.50;;;1.63;;
8986;SDS011;4529;51.360;12.474;2024-01-27T06:03:49;5.40;;;1.70;;
8986;SDS011;4529;51.360;12.474;2024-01-27T06:08:54;5.27;;;1.57;;
8986;SDS011;4529;51.360;12.474;2024-01-27T06:13:58;4.47;;;1.40;;
8986;SDS011;4529;51.360;12.474;2024-01-27T06:19:01;4.40;;;1.47;;
8986;SDS011;4529;51.360;12.474;2024-01-27T06:24:05;7.33;;;1.40;;
8986;SDS011;4529;51.360;12.474;2024-01-27T06:29:08;5.70;;;1.80;;
8986;SDS011;4529;51.360;12.474;2024-01-27T06:34:12;6.57;;;2.47;;
8986;SDS011;4529;51.360;12.474;2024-01-27T06:39:16;3.80;;;1.70;;
8986;SDS011;4529;51.360;12.474;2024-01-27T06:44:20;11.17;;;2.20;;
8986;SDS011;4529;51.360;12.474;2024-01-27T06:49:23;3.73;;;1.60;;
8986;SDS011;4529;51.360;12.474;2024-01-27T06:54:27;7.67;;;1.83;;
8986;SDS011;4529;51.360;12.474;2024-01-27T06:59:30;5.83;;;1.73;;
8986;SDS011;4529;51.360;12.474;2024-01-27T07:04:34;5.83;;;2.00;;
8986;SDS011;4529;51.360;12.474;2024-01-27T07:09:38;7.47;;;2.10;;
8986;SDS011;4529;51.360;12.474;2024-01-27T07:14:42;7.30;;;1.90;;
8986;SDS011;4529;51.360;12.474;2024-01-27T07:19:45;7.57;;;1.77;;
8986;SDS011;4529;51.360;12.474;2024-01-27T07:24:49;6.30;;;1.80;;
8986;SDS011;4529;51.360;12.474;2024-01-27T07:29:52;6.47;;;2.00;;
8986;SDS011;4529;51.360;12.474;2024-01-27T07:34:56;5.90;;;1.90;;
8986;SDS011;4529;51.360;12.474;2024-01-27T07:40:01;3.80;;;1.70;;
8986;SDS011;4529;51.360;12.474;2024-01-27T07:45:06;5.40;;;1.83;;
8986;SDS011;4529;51.360;12.474;2024-01-27T07:50:09;4.33;;;1.87;;
8986;SDS011;4529;51.360;12.474;2024-01-27T07:55:13;8.20;;;1.70;;
8986;SDS011;4529;51.360;12.474;2024-01-27T08:00:17;3.30;;;1.20;;
8986;SDS011;4529;51.360;12.474;2024-01-27T08:05:21;10.50;;;1.50;;
8986;SDS011;4529;51.360;12.474;2024-01-27T08:10:25;3.67;;;1.33;;
8986;SDS011;4529;51.360;12.474;2024-01-27T08:15:29;6.50;;;1.27;;
8986;SDS011;4529;51.360;12.474;2024-01-27T08:20:33;2.37;;;1.23;;
8986;SDS011;4529;51.360;12.474;2024-01-27T08:25:38;4.10;;;1.63;;
8986;SDS011;4529;51.360;12.474;2024-01-27T08:30:41;8.10;;;2.10;;
8986;SDS011;4529;51.360;12.474;2024-01-27T08:35:47;8.47;;;2.00;;
8986;SDS011;4529;51.360;12.474;2024-01-27T08:40:52;8.40;;;2.60;;
8986;SDS011;4529;51.360;12.474;2024-01-27T08:45:55;9.83;;;2.57;;
8986;SDS011;4529;51.360;12.474;2024-01-27T08:51:00;9.30;;;2.50;;
8986;SDS011;4529;51.360;12.474;2024-01-27T08:56:03;7.10;;;2.20;;
8986;SDS011;4529;51.360;12.474;2024-01-27T09:01:06;9.20;;;2.63;;
8986;SDS011;4529;51.360;12.474;2024-01-27T09:06:11;6.73;;;2.30;;
8986;SDS011;4529;51.360;12.474;2024-01-27T09:11:14;9.67;;;2.43;;
8986;SDS011;4529;51.360;12.474;2024-01-27T09:16:18;9.73;;;2.97;;
8986;SDS011;4529;51.360;12.474;2024-01-27T09:21:21;6.97;;;2.43;;
8986;SDS011;4529;51.360;12.474;2024-01-27T09:26:25;10.87;;;3.00;;
8986;SDS011;4529;51.360;12.474;2024-01-27T09:31:29;10.40;;;3.13;;
8986;SDS011;4529;51.360;12.474;2024-01-27T09:36:33;8.67;;;2.93;;
8986;SDS011;4529;51.360;12.474;2024-01-27T09:41:37;9.27;;;2.57;;
8986;SDS011;4529;51.360;12.474;2024-01-27T09:46:41;9.07;;;2.70;;
8986;SDS011;4529;51.360;12.474;2024-01-27T09:51:44;6.97;;;2.80;;
8986;SDS011;4529;51.360;12.474;2024-01-27T09:56:48;8.27;;;2.83;;
8986;SDS011;4529;51.360;12.474;2024-01-27T10:01:52;10.43;;;3.10;;
8986;SDS011;4529;51.360;12.474;2024-01-27T10:06:57;10.87;;;2.93;;
8986;SDS011;4529;51.360;12.474;2024-01-27T10:12:00;7.73;;;3.20;;
8986;SDS011;4529;51.360;12.474;2024-01-27T10:17:04;7.07;;;2.13;;
8986;SDS011;4529;51.360;12.474;2024-01-27T10:22:08;11.53;;;3.70;;
8986;SDS011;4529;51.360;12.474;2024-01-27T10:27:13;11.10;;;2.83;;
8986;SDS011;4529;51.360;12.474;2024-01-27T10:32:16;9.80;;;3.07;;
8986;SDS011;4529;51.360;12.474;2024-01-27T10:37:23;7.67;;;3.00;;
8986;SDS011;4529;51.360;12.474;2024-01-27T10:42:27;11.97;;;3.20;;
8986;SDS011;4529;51.360;12.474;2024-01-27T10:47:30;8.57;;;3.23;;
8986;SDS011;4529;51.360;12.474;2024-01-27T10:52:40;9.47;;;3.13;;
8986;SDS011;4529;51.360;12.474;2024-01-27T10:57:43;7.93;;;3.10;;
8986;SDS011;4529;51.360;12.474;2024-01-27T11:02:46;8.60;;;3.10;;
8986;SDS011;4529;51.360;12.474;2024-01-27T11:07:51;7.30;;;2.80;;
8986;SDS011;4529;51.360;12.474;2024-01-27T11:12:55;9.27;;;3.10;;
8986;SDS011;4529;51.360;12.474;2024-01-27T11:17:59;7.47;;;3.20;;
8986;SDS011;4529;51.360;12.474;2024-01-27T11:23:10;6.27;;;3.07;;
8986;SDS011;4529;51.360;12.474;2024-01-27T11:28:14;8.63;;;2.90;;
8986;SDS011;4529;51.360;12.474;2024-01-27T11:33:17;7.83;;;2.90;;
8986;SDS011;4529;51.360;12.474;2024-01-27T11:38:20;7.97;;;2.83;;
8986;SDS011;4529;51.360;12.474;2024-01-27T11:43:24;8.97;;;2.80;;
8986;SDS011;4529;51.360;12.474;2024-01-27T11:48:28;8.27;;;3.30;;
8986;SDS011;4529;51.360;12.474;2024-01-27T11:53:32;8.77;;;3.43;;
8986;SDS011;4529;51.360;12.474;2024-01-27T11:58:37;11.33;;;3.00;;
8986;SDS011;4529;51.360;12.474;2024-01-27T12:03:41;8.23;;;4.50;;
8986;SDS011;4529;51.360;12.474;2024-01-27T12:08:45;5.93;;;2.90;;
8986;SDS011;4529;51.360;12.474;2024-01-27T12:13:48;9.57;;;3.17;;
8986;SDS011;4529;51.360;12.474;2024-01-27T12:18:53;12.87;;;3.63;;
8986;SDS011;4529;51.360;12.474;2024-01-27T12:23:57;7.80;;;2.83;;
8986;SDS011;4529;51.360;12.474;2024-01-27T12:29:01;8.50;;;3.40;;
8986;SDS011;4529;51.360;12.474;2024-01-27T12:34:04;9.67;;;3.73;;
8986;SDS011;4529;51.360;12.474;2024-01-27T12:39:08;7.57;;;2.97;;
8986;SDS011;4529;51.360;12.474;2024-01-27T12:44:12;8.43;;;2.90;;
8986;SDS011;4529;51.360;12.474;2024-01-27T12:49:15;7.80;;;2.70;;
8986;SDS011;4529;51.360;12.474;2024-01-27T12:54:19;9.40;;;2.40;;
8986;SDS011;4529;51.360;12.474;2024-01-27T12:59:23;8.60;;;2.70;;
8986;SDS011;4529;51.360;12.474;2024-01-27T13:04:27;7.77;;;2.60;;
8986;SDS011;4529;51.360;12.474;2024-01-27T13:09:32;6.73;;;2.53;;
8986;SDS011;4529;51.360;12.474;2024-01-27T13:14:35;7.93;;;2.40;;
8986;SDS011;4529;51.360;12.474;2024-01-27T13:19:38;5.33;;;2.50;;
8986;SDS011;4529;51.360;12.474;2024-01-27T13:24:42;5.83;;;2.27;;
8986;SDS011;4529;51.360;12.474;2024-01-27T13:29:46;6.67;;;2.40;;
8986;SDS011;4529;51.360;12.474;2024-01-27T13:34:50;6.43;;;2.33;;
8986;SDS011;4529;51.360;12.474;2024-01-27T13:39:54;8.63;;;2.77;;
8986;SDS011;4529;51.360;12.474;2024-01-27T13:44:59;4.93;;;2.20;;
8986;SDS011;4529;51.360;12.474;2024-01-27T13:50:04;6.47;;;2.33;;
8986;SDS011;4529;51.360;12.474;2024-01-27T13:55:07;5.83;;;2.33;;
8986;SDS011;4529;51.360;12.474;2024-01-27T14:00:11;11.37;;;2.80;;
8986;SDS011;4529;51.360;12.474;2024-01-27T14:05:16;6.67;;;2.10;;
8986;SDS011;4529;51.360;12.474;2024-01-27T14:10:20;6.20;;;2.10;;
8986;SDS011;4529;51.360;12.474;2024-01-27T14:15:24;8.17;;;2.53;;
8986;SDS011;4529;51.360;12.474;2024-01-27T14:20:29;7.87;;;2.20;;
8986;SDS011;4529;51.360;12.474;2024-01-27T14:25:33;6.30;;;1.90;;
8986;SDS011;4529;51.360;12.474;2024-01-27T14:30:36;5.27;;;1.90;;
8986;SDS011;4529;51.360;12.474;2024-01-27T14:35:40;6.30;;;2.30;;
8986;SDS011;4529;51.360;12.474;2024-01-27T14:40:43;7.43;;;2.00;;
8986;SDS011;4529;51.360;12.474;2024-01-27T14:45:47;7.30;;;1.93;;
8986;SDS011;4529;51.360;12.474;2024-01-27T14:50:51;6.23;;;2.03;;
8986;SDS011;4529;51.360;12.474;2024-01-27T14:55:55;7.57;;;2.03;;
8986;SDS011;4529;51.360;12.474;2024-01-27T15:01:00;6.07;;;2.10;;
8986;SDS011;4529;51.360;12.474;2024-01-27T15:06:04;6.43;;;1.83;;
8986;SDS011;4529;51.360;12.474;2024-01-27T15:11:08;3.97;;;2.30;;
8986;SDS011;4529;51.360;12.474;2024-01-27T15:16:11;9.20;;;2.17;;
8986;SDS011;4529;51.360;12.474;2024-01-27T15:21:15;7.67;;;2.13;;
8986;SDS011;4529;51.360;12.474;2024-01-27T15:26:18;3.93;;;1.90;;
8986;SDS011;4529;51.360;12.474;2024-01-27T15:31:22;6.03;;;2.00;;
8986;SDS011;4529;51.360;12.474;2024-01-27T15:36:26;5.30;;;2.00;;
8986;SDS011;4529;51.360;12.474;2024-01-27T15:41:31;5.93;;;2.37;;
8986;SDS011;4529;51.360;12.474;2024-01-27T15:46:34;4.53;;;2.07;;
8986;SDS011;4529;51.360;12.474;2024-01-27T15:51:37;6.90;;;2.30;;
8986;SDS011;4529;51.360;12.474;2024-01-27T15:56:41;8.03;;;2.30;;
8986;SDS011;4529;51.360;12.474;2024-01-27T16:01:45;8.07;;;2.23;;
8986;SDS011;4529;51.360;12.474;2024-01-27T16:06:49;8.43;;;2.07;;
8986;SDS011;4529;51.360;12.474;2024-01-27T16:11:53;8.03;;;1.97;;
8986;SDS011;4529;51.360;12.474;2024-01-27T16:16:57;8.30;;;2.33;;
8986;SDS011;4529;51.360;12.474;2024-01-27T16:22:02;8.20;;;2.00;;
8986;SDS011;4529;51.360;12.474;2024-01-27T16:27:05;5.10;;;1.90;;
8986;SDS011;4529;51.360;12.474;2024-01-27T16:32:08;6.40;;;2.30;;
8986;SDS011;4529;51.360;12.474;2024-01-27T16:37:12;14.47;;;5.70;;
8986;SDS011;4529;51.360;12.474;2024-01-27T16:42:16;15.17;;;8.83;;
8986;SDS011;4529;51.360;12.474;2024-01-27T16:47:20;13.10;;;8.60;;
8986;SDS011;4529;51.360;12.474;2024-01-27T16:52:24;6.60;;;2.40;;
8986;SDS011;4529;51.360;12.474;2024-01-27T16:57:28;9.80;;;2.83;;
8986;SDS011;4529;51.360;12.474;2024-01-27T17:02:33;7.17;;;2.47;;
8986;SDS011;4529;51.360;12.474;2024-01-27T17:07:36;8.90;;;3.03;;
8986;SDS011;4529;51.360;12.474;2024-01-27T17:12:40;6.23;;;2.90;;
8986;SDS011;4529;51.360;12.474;2024-01-27T17:17:44;9.07;;;2.97;;
8986;SDS011;4529;51.360;12.474;2024-01-27T17:22:49;5.50;;;2.67;;
8986;SDS011;4529;51.360;12.474;2024-01-27T17:27:53;8.13;;;3.00;;
8986;SDS011;4529;51.360;12.474;2024-01-27T17:32:56;8.80;;;3.17;;
8986;SDS011;4529;51.360;12.474;2024-01-27T17:37:59;14.23;;;3.97;;
8986;SDS011;4529;51.360;12.474;2024-01-27T17:43:03;9.60;;;3.83;;
8986;SDS011;4529;51.360;12.474;2024-01-27T17:48:07;12.87;;;4.67;;
8986;SDS011;4529;51.360;12.474;2024-01-27T17:53:10;9.67;;;4.23;;
8986;SDS011;4529;51.360;12.474;2024-01-27T17:58:14;9.07;;;3.57;;
8986;SDS011;4529;51.360;12.474;2024-01-27T18:03:18;11.13;;;3.87;;
8986;SDS011;4529;51.360;12.474;2024-01-27T18:08:22;8.23;;;3.97;;
8986;SDS011;4529;51.360;12.474;2024-01-27T18:13:26;8.87;;;3.80;;
8986;SDS011;4529;51.360;12.474;2024-01-27T18:18:30;7.97;;;3.80;;
8986;SDS011;4529;51.360;12.474;2024-01-27T18:23:33;8.87;;;3.83;;
8986;SDS011;4529;51.360;12.474;2024-01-27T18:28:37;8.83;;;4.60;;
8986;SDS011;4529;51.360;12.474;2024-01-27T18:33:41;9.63;;;4.23;;
8986;SDS011;4529;51.360;12.474;2024-01-27T18:38:45;9.37;;;4.37;;
8986;SDS011;4529;51.360;12.474;2024-01-27T18:44:04;9.77;;;4.50;;
8986;SDS011;4529;51.360;12.474;2024-01-27T18:49:09;11.63;;;4.97;;
8986;SDS011;4529;51.360;12.474;2024-01-27T18:54:14;11.87;;;5.17;;
8986;SDS011;4529;51.360;12.474;2024-01-27T18:59:18;10.60;;;4.63;;
8986;SDS011;4529;51.360;12.474;2024-01-27T19:04:22;11.57;;;4.40;;
8986;SDS011;4529;51.360;12.474;2024-01-27T19:09:26;9.70;;;4.73;;
8986;SDS011;4529;51.360;12.474;2024-01-27T19:14:31;11.50;;;5.20;;
8986;SDS011;4529;51.360;12.474;2024-01-27T19:19:34;8.70;;;4.40;;
8986;SDS011;4529;51.360;12.474;2024-01-27T19:24:38;11.07;;;5.27;;
8986;SDS011;4529;51.360;12.474;2024-01-27T19:29:42;9.07;;;4.57;;
8986;SDS011;4529;51.360;12.474;2024-01-27T19:34:51;14.47;;;5.93;;
8986;SDS011;4529;51.360;12.474;2024-01-27T19:39:54;13.03;;;5.03;;
8986;SDS011;4529;51.360;12.474;2024-01-27T19:44:58;10.10;;;4.73;;
8986;SDS011;4529;51.360;12.474;2024-01-27T19:50:03;9.50;;;4.13;;
8986;SDS011;4529;51.360;12.474;2024-01-27T19:55:07;9.20;;;4.47;;
8986;SDS011;4529;51.360;12.474;2024-01-27T20:00:11;10.03;;;4.63;;
8986;SDS011;4529;51.360;12.474;2024-01-27T20:05:16;13.00;;;5.17;;
8986;SDS011;4529;51.360;12.474;2024-01-27T20:10:20;10.80;;;4.80;;
8986;SDS011;4529;51.360;12.474;2024-01-27T20:15:24;7.43;;;4.57;;
8986;SDS011;4529;51.360;12.474;2024-01-27T20:20:27;10.00;;;5.00;;
8986;SDS011;4529;51.360;12.474;2024-01-27T20:25:31;8.67;;;4.13;;
8986;SDS011;4529;51.360;12.474;2024-01-27T20:30:34;7.27;;;4.07;;
8986;SDS011;4529;51.360;12.474;2024-01-27T20:35:38;9.63;;;4.70;;
8986;SDS011;4529;51.360;12.474;2024-01-27T20:40:42;10.30;;;4.60;;
8986;SDS011;4529;51.360;12.474;2024-01-27T20:45:47;9.43;;;4.20;;
8986;SDS011;4529;51.360;12.474;2024-01-27T20:50:51;7.83;;;4.47;;
8986;SDS011;4529;51.360;12.474;2024-01-27T20:55:54;7.17;;;4.37;;
8986;SDS011;4529;51.360;12.474;2024-01-27T21:00:58;6.07;;;3.93;;
8986;SDS011;4529;51.360;12.474;2024-01-27T21:06:01;7.13;;;4.10;;
8986;SDS011;4529;51.360;12.474;2024-01-27T21:11:05;11.73;;;4.40;;
8986;SDS011;4529;51.360;12.474;2024-01-27T21:16:09;9.20;;;5.10;;
8986;SDS011;4529;51.360;12.474;2024-01-27T21:21:13;11.57;;;5.07;;
8986;SDS011;4529;51.360;12.474;2024-01-27T21:26:18;10.67;;;5.00;;
8986;SDS011;4529;51.360;12.474;2024-01-27T21:31:22;11.03;;;4.93;;
8986;SDS011;4529;51.360;12.474;2024-01-27T21:36:25;7.73;;;4.57;;
8986;SDS011;4529;51.360;12.474;2024-01-27T21:41:29;10.93;;;4.70;;
8986;SDS011;4529;51.360;12.474;2024-01-27T21:46:32;6.97;;;4.10;;
8986;SDS011;4529;51.360;12.474;2024-01-27T21:51:36;11.40;;;4.20;;
8986;SDS011;4529;51.360;12.474;2024-01-27T21:56:40;10.73;;;4.73;;
8986;SDS011;4529;51.360;12.474;2024-01-27T22:01:44;9.73;;;4.77;;
8986;SDS011;4529;51.360;12.474;2024-01-27T22:06:49;10.77;;;5.10;;
8986;SDS011;4529;51.360;12.474;2024-01-27T22:11:52;10.57;;;5.47;;
8986;SDS011;4529;51.360;12.474;2024-01-27T22:16:55;11.43;;;5.50;;
8986;SDS011;4529;51.360;12.474;2024-01-27T22:21:59;10.57;;;5.73;;
8986;SDS011;4529;51.360;12.474;2024-01-27T22:27:03;13.27;;;5.93;;
8986;SDS011;4529;51.360;12.474;2024-01-27T22:32:06;11.83;;;5.43;;
8986;SDS011;4529;51.360;12.474;2024-01-27T22:37:10;11.83;;;5.07;;
8986;SDS011;4529;51.360;12.474;2024-01-27T22:42:13;7.53;;;4.67;;
8986;SDS011;4529;51.360;12.474;2024-01-27T22:47:17;9.60;;;6.40;;
8986;SDS011;4529;51.360;12.474;2024-01-27T22:52:21;9.50;;;5.70;;
8986;SDS011;4529;51.360;12.474;2024-01-27T22:57:25;11.73;;;5.50;;
8986;SDS011;4529;51.360;12.474;2024-01-27T23:02:33;10.27;;;5.70;;
8986;SDS011;4529;51.360;12.474;2024-01-27T23:07:37;12.57;;;5.20;;
8986;SDS011;4529;51.360;12.474;2024-01-27T23:12:40;9.13;;;5.73;;
8986;SDS011;4529;51.360;12.474;2024-01-27T23:17:44;10.10;;;5.67;;
8986;SDS011;4529;51.360;12.474;2024-01-27T23:22:48;10.73;;;5.97;;
8986;SDS011;4529;51.360;12.474;2024-01-27T23:27:52;10.57;;;5.60;;
8986;SDS011;4529;51.360;12.474;2024-01-27T23:32:56;9.47;;;5.67;;
8986;SDS011;4529;51.360;12.474;2024-01-27T23:37:59;7.10;;;4.80;;
8986;SDS011;4529;51.360;12.474;2024-01-27T23:43:03;13.00;;;5.70;;
8986;SDS011;4529;51.360;12.474;2024-01-27T23:48:07;12.73;;;6.20;;
8986;SDS011;4529;51.360;12.474;2024-01-27T23:53:10;22.07;;;9.90;;
8986;SDS011;4529;51.360;12.474;2024-01-27T23:58:14;17.53;;;10.37;;
